Time;durP1;ratioP1;P1;durP2;ratioP2;P2;SDS_P1;SDS_P2;PMS_P1;PMS_P2;Temp;Humidity;BMP_temperature;BMP_pressure;BME280_temperature;BME280_humidity;BME280_pressure;Samples;Min_cycle;Max_cycle;Signal;HPM_P1;HPM_P2
2023/04/13 00:00:40;;;;;;;;;3.75;3.50;;;;;-147.17;100.00;-15917.19;4987075;28;53771;-58
2023/04/13 00:03:07;;;;;;;;;6.00;4.75;;;;;-147.17;100.00;-15917.19;4987069;28;51191;-58
2023/04/13 00:05:33;;;;;;;;;14.50;14.00;;;;;-147.17;100.00;-15917.19;4989093;28;51365;-58
2023/04/13 00:08:01;;;;;;;;;8.75;7.75;;;;;-147.17;100.00;-15917.19;4986747;28;52503;-57
2023/04/13 00:10:28;;;;;;;;;27.00;26.25;;;;;-147.17;100.00;-15917.19;4988136;28;51770;-57
2023/04/13 00:12:57;;;;;;;;;15.75;14.50;;;;;-147.17;100.00;-15917.19;4988622;28;51191;-57
2023/04/13 00:15:22;;;;;;;;;9.75;9.00;;;;;-147.17;100.00;-15917.19;4991759;28;51186;-58
2023/04/13 00:17:48;;;;;;;;;15.25;15.25;;;;;-147.17;100.00;-15917.19;4997740;28;51175;-59
2023/04/13 00:20:13;;;;;;;;;3.25;3.00;;;;;-147.17;100.00;-15917.19;5000445;28;52348;-58
2023/04/13 00:22:43;;;;;;;;;2.00;2.00;;;;;-147.17;100.00;-15917.19;4989371;28;51183;-57
2023/04/13 00:25:11;;;;;;;;;1.00;1.00;;;;;-147.17;100.00;-15917.19;4984858;28;51207;-58
2023/04/13 00:27:40;;;;;;;;;2.00;2.00;;;;;-147.17;100.00;-15917.19;4992569;28;51463;-58
2023/04/13 00:30:10;;;;;;;;;1.00;1.00;;;;;-147.17;100.00;-15917.19;4999309;28;51744;-57
2023/04/13 00:32:36;;;;;;;;;1.00;1.00;;;;;-147.17;100.00;-15917.19;5001459;28;51281;-59
2023/04/13 00:35:02;;;;;;;;;1.25;1.25;;;;;-147.17;100.00;-15917.19;4992223;28;51087;-59
2023/04/13 00:37:29;;;;;;;;;3.00;2.00;;;;;-147.17;100.00;-15917.19;4987329;28;51216;-57
2023/04/13 00:39:54;;;;;;;;;2.00;1.00;;;;;-147.17;100.00;-15917.19;4992795;28;52210;-59
2023/04/13 00:42:20;;;;;;;;;2.00;0.00;;;;;-147.17;100.00;-15917.19;4982315;28;51100;-58
2023/04/13 00:44:45;;;;;;;;;1.00;1.00;;;;;-147.17;100.00;-15917.19;4981855;28;51255;-58
2023/04/13 00:47:12;;;;;;;;;2.75;1.00;;;;;-147.17;100.00;-15917.19;4991966;28;51318;-58
2023/04/13 00:49:37;;;;;;;;;2.00;2.00;;;;;-147.17;100.00;-15917.19;4992316;28;51128;-58
2023/04/13 00:52:03;;;;;;;;;1.50;1.00;;;;;-147.17;100.00;-15917.19;4988500;28;51263;-59
2023/04/13 00:54:30;;;;;;;;;1.25;1.25;;;;;-147.17;100.00;-15917.19;4993611;28;51144;-59
2023/04/13 00:56:57;;;;;;;;;2.00;2.00;;;;;-147.17;100.00;-15917.19;4988325;28;51171;-59
2023/04/13 00:59:26;;;;;;;;;1.50;1.00;;;;;-147.17;100.00;-15917.19;4984547;28;51179;-59
2023/04/13 01:01:55;;;;;;;;;1.00;0.00;;;;;-147.17;100.00;-15917.19;4982357;28;51407;-58
2023/04/13 01:04:26;;;;;;;;;1.50;1.00;;;;;-147.17;100.00;-15917.19;4991557;28;51248;-59
2023/04/13 01:07:10;;;;;;;;;2.00;2.00;;;;;-147.17;100.00;-15917.19;4990621;28;51264;-58
2023/04/13 01:09:47;;;;;;;;;4.00;2.00;;;;;-147.17;100.00;-15917.19;4985207;28;51300;-58
2023/04/13 01:12:34;;;;;;;;;2.00;1.00;;;;;-147.17;100.00;-15917.19;4983936;28;51133;-58
2023/04/13 01:15:07;;;;;;;;;2.50;2.50;;;;;-147.17;100.00;-15917.19;4992317;28;51278;-59
2023/04/13 01:17:40;;;;;;;;;2.00;1.50;;;;;-147.17;100.00;-15917.19;4982514;28;51256;-58
2023/04/13 01:20:14;;;;;;;;;2.00;1.50;;;;;-147.17;100.00;-15917.19;4981393;28;51731;-59
2023/04/13 01:22:56;;;;;;;;;1.00;1.00;;;;;-147.17;100.00;-15917.19;4985492;28;51184;-58
2023/04/13 01:25:34;;;;;;;;;3.75;3.50;;;;;-147.17;100.00;-15917.19;4984004;28;52050;-59
2023/04/13 01:28:01;;;;;;;;;1.00;0.50;;;;;-147.17;100.00;-15917.19;4983366;28;51472;-59
2023/04/13 01:30:28;;;;;;;;;2.50;2.50;;;;;-147.17;100.00;-15917.19;4987093;28;51144;-58
2023/04/13 01:32:54;;;;;;;;;3.00;3.00;;;;;-147.17;100.00;-15917.19;4984941;28;51237;-58
2023/04/13 01:35:21;;;;;;;;;3.75;1.50;;;;;-147.17;100.00;-15917.19;4984446;28;51151;-57
2023/04/13 01:37:49;;;;;;;;;2.00;1.00;;;;;-147.17;100.00;-15917.19;4987881;28;52165;-58
2023/04/13 01:40:15;;;;;;;;;1.00;1.00;;;;;-147.17;100.00;-15917.19;4987928;28;51256;-57
2023/04/13 01:42:41;;;;;;;;;6.00;2.25;;;;;-147.17;100.00;-15917.19;4987023;28;51312;-57
2023/04/13 01:45:30;;;;;;;;;4.00;1.50;;;;;-147.17;100.00;-15917.19;4987524;28;52351;-58
2023/04/13 01:48:18;;;;;;;;;0.00;0.00;;;;;-147.17;100.00;-15917.19;4984986;28;51458;-58
2023/04/13 01:51:03;;;;;;;;;3.50;2.00;;;;;-147.17;100.00;-15917.19;4983523;28;52082;-58
2023/04/13 01:53:33;;;;;;;;;6.25;2.75;;;;;-147.17;100.00;-15917.19;4985476;28;51138;-58
2023/04/13 01:55:59;;;;;;;;;1.50;1.00;;;;;-147.17;100.00;-15917.19;4987012;28;51296;-58
2023/04/13 01:58:27;;;;;;;;;3.00;2.00;;;;;-147.17;100.00;-15917.19;4986517;28;51247;-59
2023/04/13 02:00:54;;;;;;;;;2.00;2.00;;;;;-147.17;100.00;-15917.19;4982600;28;51096;-59
2023/04/13 02:03:21;;;;;;;;;1.00;1.00;;;;;-147.17;100.00;-15917.19;4980082;28;50996;-57
2023/04/13 02:05:47;;;;;;;;;1.00;1.00;;;;;-147.17;100.00;-15917.19;4983312;28;51156;-58
2023/04/13 02:08:12;;;;;;;;;3.00;2.00;;;;;-147.17;100.00;-15917.19;5008539;28;51648;-59
2023/04/13 02:10:38;;;;;;;;;1.00;0.75;;;;;-147.17;100.00;-15917.19;4980074;28;52302;-58
2023/04/13 02:13:04;;;;;;;;;3.25;2.00;;;;;-147.17;100.00;-15917.19;5004032;28;51144;-57
2023/04/13 02:15:36;;;;;;;;;2.00;1.00;;;;;-147.17;100.00;-15917.19;5005685;28;51299;-59
2023/04/13 02:18:06;;;;;;;;;3.00;3.00;;;;;-147.17;100.00;-15917.19;4992620;28;51073;-59
2023/04/13 02:20:39;;;;;;;;;1.00;1.00;;;;;-147.17;100.00;-15917.19;4991713;28;51788;-59
2023/04/13 02:23:07;;;;;;;;;2.00;1.50;;;;;-147.17;100.00;-15917.19;4990804;28;51192;-59
2023/04/13 02:25:32;;;;;;;;;2.75;1.50;;;;;-147.17;100.00;-15917.19;5004193;28;51212;-59
2023/04/13 02:27:58;;;;;;;;;2.25;1.50;;;;;-147.17;100.00;-15917.19;5003580;28;51025;-57
2023/04/13 02:30:24;;;;;;;;;3.50;3.50;;;;;-147.17;100.00;-15917.19;4995958;28;51029;-59
2023/04/13 02:32:52;;;;;;;;;1.75;1.75;;;;;-147.17;100.00;-15917.19;4993891;28;51193;-58
2023/04/13 02:35:19;;;;;;;;;1.00;0.75;;;;;-147.17;100.00;-15917.19;4995098;28;51088;-59
2023/04/13 02:37:44;;;;;;;;;2.75;1.25;;;;;-147.17;100.00;-15917.19;5001803;28;51336;-58
2023/04/13 02:40:10;;;;;;;;;2.75;1.75;;;;;-147.17;100.00;-15917.19;4993576;28;52004;-58
2023/04/13 02:42:37;;;;;;;;;4.00;1.00;;;;;-147.17;100.00;-15917.19;4993906;28;51450;-58
2023/04/13 02:45:04;;;;;;;;;2.00;1.00;;;;;-147.17;100.00;-15917.19;4995497;28;50947;-59
2023/04/13 02:47:30;;;;;;;;;3.50;2.00;;;;;-147.17;100.00;-15917.19;4991547;28;51387;-59
2023/04/13 02:49:56;;;;;;;;;1.50;1.00;;;;;-147.17;100.00;-15917.19;5000200;28;51214;-59
2023/04/13 02:52:22;;;;;;;;;2.50;1.50;;;;;-147.17;100.00;-15917.19;5014198;28;53516;-58
2023/04/13 02:54:47;;;;;;;;;2.50;2.25;;;;;-147.17;100.00;-15917.19;5008573;28;51160;-59
2023/04/13 02:57:13;;;;;;;;;3.75;1.50;;;;;-147.17;100.00;-15917.19;4985820;28;50993;-58
2023/04/13 02:59:39;;;;;;;;;3.00;1.00;;;;;-147.17;100.00;-15917.19;4990994;28;52202;-59
2023/04/13 03:02:05;;;;;;;;;1.75;1.75;;;;;-147.17;100.00;-15917.19;4988676;28;51256;-59
2023/04/13 03:04:31;;;;;;;;;3.00;2.00;;;;;-147.17;100.00;-15917.19;5008105;28;51057;-59
2023/04/13 03:06:57;;;;;;;;;2.75;1.25;;;;;-147.17;100.00;-15917.19;4993667;28;51276;-59
2023/04/13 03:09:24;;;;;;;;;6.25;2.00;;;;;-147.17;100.00;-15917.19;4989912;28;54428;-58
2023/04/13 03:11:49;;;;;;;;;3.00;2.00;;;;;-147.17;100.00;-15917.19;4991963;28;51097;-58
2023/04/13 03:14:20;;;;;;;;;2.25;1.00;;;;;-147.17;100.00;-15917.19;4994521;28;50912;-58
2023/04/13 03:16:47;;;;;;;;;2.50;1.25;;;;;-147.17;100.00;-15917.19;4985070;28;51094;-57
2023/04/13 03:19:13;;;;;;;;;2.00;2.00;;;;;-147.17;100.00;-15917.19;4986491;28;52121;-57
2023/04/13 03:21:40;;;;;;;;;2.00;1.00;;;;;-147.17;100.00;-15917.19;4994934;28;51043;-57
2023/04/13 03:24:06;;;;;;;;;3.00;2.00;;;;;-147.17;100.00;-15917.19;4990484;28;51061;-58
2023/04/13 03:26:31;;;;;;;;;2.25;1.50;;;;;-147.17;100.00;-15917.19;4986129;28;51056;-57
2023/04/13 03:28:57;;;;;;;;;1.00;1.00;;;;;-147.17;100.00;-15917.19;4989640;28;51682;-57
2023/04/13 03:31:22;;;;;;;;;2.00;1.00;;;;;-147.17;100.00;-15917.19;4995308;28;51183;-59
2023/04/13 03:33:47;;;;;;;;;2.25;2.00;;;;;-147.17;100.00;-15917.19;5014144;28;51084;-57
2023/04/13 03:36:12;;;;;;;;;2.75;2.00;;;;;-147.17;100.00;-15917.19;4990675;28;51395;-57
2023/04/13 03:38:38;;;;;;;;;1.50;1.25;;;;;-147.17;100.00;-15917.19;4997491;28;51061;-57
2023/04/13 03:41:03;;;;;;;;;2.00;1.00;;;;;-147.17;100.00;-15917.19;4993645;28;50988;-58
2023/04/13 03:43:29;;;;;;;;;3.00;1.50;;;;;-147.17;100.00;-15917.19;4992479;28;51027;-57
2023/04/13 03:45:54;;;;;;;;;3.00;1.00;;;;;-147.17;100.00;-15917.19;4997992;28;51084;-57
2023/04/13 03:48:20;;;;;;;;;2.50;2.00;;;;;-147.17;100.00;-15917.19;4992823;28;56676;-58
2023/04/13 03:50:45;;;;;;;;;3.00;2.50;;;;;-147.17;100.00;-15917.19;4992589;28;51041;-57
2023/04/13 03:53:10;;;;;;;;;4.75;2.50;;;;;-147.17;100.00;-15917.19;5002040;28;51247;-57
2023/04/13 03:55:36;;;;;;;;;1.50;1.25;;;;;-147.17;100.00;-15917.19;4990517;28;51125;-57
2023/04/13 03:58:01;;;;;;;;;1.00;1.00;;;;;-147.17;100.00;-15917.19;4982233;28;52174;-57
2023/04/13 04:00:29;;;;;;;;;2.00;1.25;;;;;-147.17;100.00;-15917.19;4990345;28;51019;-57
2023/04/13 04:02:54;;;;;;;;;2.50;2.00;;;;;-147.17;100.00;-15917.19;4982350;28;50958;-57
2023/04/13 04:05:19;;;;;;;;;2.00;2.00;;;;;-147.17;100.00;-15917.19;4991124;28;51179;-58
2023/04/13 04:07:45;;;;;;;;;0.75;0.75;;;;;-147.17;100.00;-15917.19;4990788;28;52736;-58
2023/04/13 04:10:10;;;;;;;;;2.00;2.00;;;;;-147.17;100.00;-15917.19;4991938;28;50953;-57
2023/04/13 04:12:36;;;;;;;;;3.00;2.50;;;;;-147.17;100.00;-15917.19;4994319;28;51070;-58
2023/04/13 04:15:01;;;;;;;;;2.00;1.00;;;;;-147.17;100.00;-15917.19;4980401;28;51033;-57
2023/04/13 04:17:26;;;;;;;;;3.00;2.00;;;;;-147.17;100.00;-15917.19;4995526;28;51948;-56
2023/04/13 04:19:52;;;;;;;;;4.50;2.50;;;;;-147.17;100.00;-15917.19;4990224;28;51048;-57
2023/04/13 04:22:17;;;;;;;;;0.75;0.25;;;;;-147.17;100.00;-15917.19;4991848;28;52738;-58
2023/04/13 04:24:42;;;;;;;;;2.00;1.75;;;;;-147.17;100.00;-15917.19;4975662;28;51774;-59
2023/04/13 04:27:08;;;;;;;;;1.75;1.00;;;;;-147.17;100.00;-15917.19;4992537;28;51722;-57
2023/04/13 04:29:33;;;;;;;;;3.25;1.00;;;;;-147.17;100.00;-15917.19;4990738;28;51124;-58
2023/04/13 04:32:00;;;;;;;;;1.50;1.50;;;;;-147.17;100.00;-15917.19;4999029;28;51142;-57
2023/04/13 04:34:26;;;;;;;;;3.00;3.00;;;;;-147.17;100.00;-15917.19;5009232;28;51352;-58
2023/04/13 04:36:52;;;;;;;;;1.25;1.00;;;;;-147.17;100.00;-15917.19;5013288;28;51035;-56
2023/04/13 04:39:22;;;;;;;;;2.00;1.00;;;;;-147.17;100.00;-15917.19;4979672;28;50912;-58
2023/04/13 04:41:53;;;;;;;;;3.00;1.00;;;;;-147.17;100.00;-15917.19;4990970;28;51255;-58
2023/04/13 04:44:19;;;;;;;;;2.00;1.75;;;;;-147.17;100.00;-15917.19;4999380;28;51257;-58
2023/04/13 04:46:47;;;;;;;;;2.00;0.75;;;;;-147.17;100.00;-15917.19;5009672;28;51924;-57
2023/04/13 04:49:13;;;;;;;;;2.00;1.50;;;;;-147.17;100.00;-15917.19;4983092;28;51552;-58
2023/04/13 04:51:38;;;;;;;;;3.25;1.25;;;;;-147.17;100.00;-15917.19;5004482;28;51143;-57
2023/04/13 04:54:04;;;;;;;;;3.25;2.00;;;;;-147.17;100.00;-15917.19;4994286;28;51251;-57
2023/04/13 04:56:30;;;;;;;;;2.00;2.00;;;;;-147.17;100.00;-15917.19;4991733;28;51111;-57
2023/04/13 04:58:56;;;;;;;;;4.75;2.50;;;;;-147.17;100.00;-15917.19;4995485;28;51172;-57
2023/04/13 05:01:25;;;;;;;;;1.00;0.50;;;;;-147.17;100.00;-15917.19;4989105;28;51172;-58
2023/04/13 05:03:54;;;;;;;;;3.00;2.00;;;;;-147.17;100.00;-15917.19;4990887;28;51042;-58
2023/04/13 05:06:19;;;;;;;;;2.75;2.00;;;;;-147.17;100.00;-15917.19;5012748;28;51319;-57
2023/04/13 05:08:45;;;;;;;;;2.25;1.00;;;;;-147.17;100.00;-15917.19;4999026;28;51049;-57
2023/04/13 05:11:10;;;;;;;;;3.00;3.00;;;;;-147.17;100.00;-15917.19;4987820;28;51284;-58
2023/04/13 05:13:36;;;;;;;;;5.00;3.50;;;;;-147.17;100.00;-15917.19;4992185;28;52007;-58
2023/04/13 05:16:04;;;;;;;;;1.75;0.50;;;;;-147.17;100.00;-15917.19;4989321;28;51147;-57
2023/04/13 05:18:31;;;;;;;;;3.00;2.00;;;;;-147.17;100.00;-15917.19;4966598;28;52708;-57
2023/04/13 05:20:57;;;;;;;;;3.50;2.00;;;;;-147.17;100.00;-15917.19;4991058;28;51231;-57
2023/04/13 05:23:22;;;;;;;;;3.25;2.75;;;;;-147.17;100.00;-15917.19;4991487;28;51155;-57
2023/04/13 05:25:48;;;;;;;;;3.50;3.00;;;;;-147.17;100.00;-15917.19;4989464;28;51202;-58
2023/04/13 05:28:13;;;;;;;;;2.75;1.50;;;;;-147.17;100.00;-15917.19;4980854;28;51100;-58
2023/04/13 05:30:38;;;;;;;;;2.25;2.25;;;;;-147.17;100.00;-15917.19;4992449;28;50958;-58
2023/04/13 05:33:06;;;;;;;;;3.50;2.50;;;;;-147.17;100.00;-15917.19;4992179;28;51256;-58
2023/04/13 05:35:31;;;;;;;;;12.75;12.00;;;;;-147.17;100.00;-15917.19;4981620;28;52043;-59
2023/04/13 05:37:59;;;;;;;;;13.25;13.00;;;;;-147.17;100.00;-15917.19;4979376;28;51212;-57
2023/04/13 05:40:24;;;;;;;;;5.00;3.75;;;;;-147.17;100.00;-15917.19;4985695;28;51193;-58
2023/04/13 05:42:50;;;;;;;;;2.75;2.75;;;;;-147.17;100.00;-15917.19;4994977;28;51482;-58
2023/04/13 05:45:15;;;;;;;;;7.75;7.50;;;;;-147.17;100.00;-15917.19;5008831;28;51535;-58
2023/04/13 05:47:41;;;;;;;;;6.75;6.00;;;;;-147.17;100.00;-15917.19;4989266;28;51101;-58
2023/04/13 05:50:07;;;;;;;;;7.25;5.00;;;;;-147.17;100.00;-15917.19;4991928;28;51202;-58
2023/04/13 05:52:33;;;;;;;;;13.50;10.50;;;;;-147.17;100.00;-15917.19;4990158;28;51294;-57
2023/04/13 05:54:59;;;;;;;;;5.50;5.50;;;;;-147.17;100.00;-15917.19;4991364;28;52860;-58
2023/04/13 05:57:24;;;;;;;;;9.25;8.50;;;;;-147.17;100.00;-15917.19;4990338;28;51084;-58
2023/04/13 05:59:50;;;;;;;;;8.25;8.00;;;;;-147.17;100.00;-15917.19;4991849;28;51282;-58
2023/04/13 06:02:16;;;;;;;;;9.00;6.00;;;;;-147.17;100.00;-15917.19;4986469;28;51279;-58
2023/04/13 06:04:42;;;;;;;;;5.25;4.25;;;;;-147.17;100.00;-15917.19;4987074;28;51317;-58
2023/04/13 06:07:07;;;;;;;;;9.00;7.00;;;;;-147.17;100.00;-15917.19;4986151;28;51158;-58
2023/04/13 06:09:32;;;;;;;;;2.75;2.00;;;;;-147.17;100.00;-15917.19;4994017;28;53481;-57
2023/04/13 06:11:58;;;;;;;;;3.00;3.00;;;;;-147.17;100.00;-15917.19;5001096;28;51245;-58
2023/04/13 06:14:24;;;;;;;;;4.75;3.00;;;;;-147.17;100.00;-15917.19;4994517;28;52698;-57
2023/04/13 06:16:51;;;;;;;;;4.75;2.00;;;;;-147.17;100.00;-15917.19;4993950;28;51280;-59
2023/04/13 06:19:17;;;;;;;;;2.50;1.75;;;;;-147.17;100.00;-15917.19;4992641;28;51279;-57
2023/04/13 06:21:42;;;;;;;;;4.25;3.50;;;;;-147.17;100.00;-15917.19;4995829;28;50990;-57
2023/04/13 06:24:08;;;;;;;;;5.00;4.00;;;;;-147.17;100.00;-15917.19;4993023;28;51230;-57
2023/04/13 06:26:34;;;;;;;;;2.50;2.00;;;;;-147.17;100.00;-15917.19;4992039;28;51168;-58
2023/04/13 06:29:00;;;;;;;;;3.25;2.75;;;;;-147.17;100.00;-15917.19;4986018;28;51082;-58
2023/04/13 06:31:26;;;;;;;;;3.25;2.50;;;;;-147.17;100.00;-15917.19;4992105;28;51168;-57
2023/04/13 06:33:52;;;;;;;;;1.25;1.00;;;;;-147.17;100.00;-15917.19;4994485;28;51145;-58
2023/04/13 06:36:18;;;;;;;;;5.25;4.50;;;;;-147.17;100.00;-15917.19;4993838;28;51137;-56
2023/04/13 06:38:43;;;;;;;;;4.75;3.25;;;;;-147.17;100.00;-15917.19;4995008;28;51011;-57
2023/04/13 06:41:08;;;;;;;;;3.75;2.75;;;;;-147.17;100.00;-15917.19;4994437;28;50963;-57
2023/04/13 06:43:34;;;;;;;;;3.00;3.00;;;;;-147.17;100.00;-15917.19;4993919;28;50971;-58
2023/04/13 06:46:01;;;;;;;;;3.00;3.00;;;;;-147.17;100.00;-15420.25;4993884;28;50986;-58
2023/04/13 06:48:26;;;;;;;;;4.00;3.00;;;;;-147.17;100.00;-15172.50;4994234;28;51132;-59
2023/04/13 06:50:54;;;;;;;;;5.00;4.00;;;;;-147.17;100.00;-12941.97;4994815;28;51336;-58
2023/04/13 06:53:19;;;;;;;;;4.00;3.67;;;;;-147.17;100.00;-10214.00;4992146;28;52210;-58
2023/04/13 06:55:45;;;;;;;;;4.00;2.00;;;;;-147.17;100.00;-9717.81;4993703;28;51136;-58
2023/04/13 06:58:10;;;;;;;;;5.00;4.33;;;;;-147.17;100.00;-6987.56;4994674;28;51078;-59
2023/04/13 07:00:36;;;;;;;;;6.00;6.00;;;;;-147.17;100.00;-3261.34;4993854;28;51115;-58
2023/04/13 07:03:02;;;;;;;;;5.67;4.00;;;;;-147.17;100.00;3952.94;4994342;28;52120;-58
2023/04/13 07:05:28;;;;;;;;;3.00;1.67;;;;;-147.17;100.00;2459.22;4994736;28;50907;-58
2023/04/13 07:07:54;;;;;;;;;5.00;4.33;;;;;-147.17;100.00;10931.25;4993705;28;51121;-59
2023/04/13 07:10:20;;;;;;;;;4.67;3.67;;;;;-147.17;100.00;11679.66;4993142;28;51000;-58
2023/04/13 07:12:45;;;;;;;;;3.33;2.33;;;;;-147.17;100.00;10681.81;4994398;28;51640;-58
2023/04/13 07:15:10;;;;;;;;;4.00;3.67;;;;;-147.17;100.00;22172.75;4993702;28;50976;-58
2023/04/13 07:17:36;;;;;;;;;3.67;2.00;;;;;-147.17;100.00;23423.81;4993385;28;51228;-58
2023/04/13 07:20:03;;;;;;;;;16.00;11.33;;;;;-147.17;100.00;30127.75;5013156;28;51154;-59
2023/04/13 07:22:32;;;;;;;;;3.67;3.67;;;;;-147.17;100.00;24925.63;5002130;28;51974;-58
2023/04/13 07:24:58;;;;;;;;;4.67;2.67;;;;;-147.17;100.00;25651.31;4985394;28;51064;-58
2023/04/13 07:27:23;;;;;;;;;5.33;2.67;;;;;-147.17;100.00;35070.13;4990682;28;50926;-58
2023/04/13 07:29:52;;;;;;;;;3.33;3.33;;;;;-147.17;100.00;34087.81;4998486;28;51147;-58
2023/04/13 07:32:19;;;;;;;;;4.00;2.33;;;;;-147.17;100.00;31232.47;5003519;28;53549;-60
2023/04/13 07:34:44;;;;;;;;;2.33;2.00;;;;;-147.17;100.00;35727.06;4992076;28;51142;-59
2023/04/13 07:37:10;;;;;;;;;4.33;4.33;;;;;-147.17;100.00;35338.78;4994357;28;51252;-58
2023/04/13 07:39:35;;;;;;;;;2.00;1.00;;;;;-147.17;100.00;38369.78;4994495;28;51088;-59
2023/04/13 07:42:01;;;;;;;;;2.00;1.33;;;;;-147.17;100.00;34913.25;4994017;28;51980;-59
2023/04/13 07:44:26;;;;;;;;;4.00;4.00;;;;;-147.17;100.00;35425.06;4994205;28;51135;-59
2023/04/13 07:46:54;;;;;;;;;2.00;2.00;;;;;-147.17;100.00;36635.25;4993081;28;50909;-59
2023/04/13 07:49:19;;;;;;;;;3.00;2.00;;;;;-147.17;100.00;39150.97;4993642;28;51061;-59
2023/04/13 07:51:44;;;;;;;;;3.00;2.00;;;;;-147.17;100.00;41939.38;5002721;28;51033;-59
2023/04/13 07:54:12;;;;;;;;;1.33;1.00;;;;;-147.17;100.00;42135.81;5013582;28;51170;-58
2023/04/13 07:56:38;;;;;;;;;3.00;3.00;;;;;-147.17;100.00;40038.34;5004499;28;51376;-59
2023/04/13 07:59:03;;;;;;;;;4.00;4.00;;;;;-147.17;100.00;38931.13;4994764;28;51142;-59
2023/04/13 08:01:29;;;;;;;;;3.00;3.00;;;;;-147.17;100.00;39726.16;5004880;28;53118;-59
2023/04/13 08:03:54;;;;;;;;;3.33;3.00;;;;;-147.17;100.00;42025.81;5013117;28;51112;-59
2023/04/13 08:06:20;;;;;;;;;4.00;4.00;;;;;-147.17;100.00;42780.22;5002552;28;51027;-59
2023/04/13 08:08:46;;;;;;;;;2.00;2.00;;;;;-147.17;100.00;43359.88;4994283;28;51023;-59
2023/04/13 08:11:11;;;;;;;;;4.00;2.67;;;;;-147.17;100.00;43754.88;4993470;28;51287;-59
2023/04/13 08:13:37;;;;;;;;;3.33;2.33;;;;;-147.17;100.00;43574.06;4991683;28;51181;-58
2023/04/13 08:16:03;;;;;;;;;3.00;3.00;;;;;-147.17;100.00;43678.22;4993113;28;51169;-58
2023/04/13 08:18:30;;;;;;;;;4.00;3.00;;;;;-147.17;100.00;43405.06;4993747;28;51257;-58
2023/04/13 08:20:57;;;;;;;;;3.67;2.33;;;;;-147.17;100.00;44427.03;4972367;28;53522;-59
2023/04/13 08:23:23;;;;;;;;;3.67;3.67;;;;;-147.17;100.00;43747.00;5008158;28;51038;-59
2023/04/13 08:25:48;;;;;;;;;5.00;5.00;;;;;-147.17;100.00;42996.34;5010719;28;51234;-58
2023/04/13 08:28:14;;;;;;;;;5.00;2.33;;;;;-147.17;100.00;42996.34;5008833;28;51051;-59
2023/04/13 08:30:40;;;;;;;;;4.00;3.00;;;;;-147.17;100.00;44401.50;4993177;28;52463;-58
2023/04/13 08:33:05;;;;;;;;;2.67;2.33;;;;;-147.17;100.00;44191.19;4997587;28;51199;-58
2023/04/13 08:35:31;;;;;;;;;1.67;1.67;;;;;-147.17;100.00;44149.91;5013052;28;51115;-58
2023/04/13 08:37:57;;;;;;;;;3.67;3.33;;;;;-147.17;100.00;43721.47;5012980;28;51006;-58
2023/04/13 08:40:22;;;;;;;;;6.00;4.33;;;;;-147.17;100.00;43149.59;5012699;28;50979;-59
2023/04/13 08:42:48;;;;;;;;;6.00;4.00;;;;;-147.17;100.00;42697.69;5012583;28;51001;-58
2023/04/13 08:45:14;;;;;;;;;4.33;3.67;;;;;-147.17;100.00;42422.63;5011111;28;51195;-58
2023/04/13 08:47:40;;;;;;;;;3.00;3.00;;;;;-147.17;100.00;43648.75;5011373;28;51334;-58
2023/04/13 08:50:07;;;;;;;;;3.33;3.33;;;;;-147.17;100.00;43713.59;5012509;28;52046;-58
2023/04/13 08:52:34;;;;;;;;;2.33;2.00;;;;;-147.17;100.00;43695.91;5012675;28;51073;-59
2023/04/13 08:55:02;;;;;;;;;9.33;9.00;;;;;-147.17;100.00;44429.00;5003735;28;51214;-59
2023/04/13 08:57:31;;;;;;;;;4.00;3.33;;;;;-147.17;100.00;44894.88;5009886;28;51357;-59
2023/04/13 08:59:57;;;;;;;;;7.67;5.33;;;;;-147.17;100.00;45567.25;4996974;28;51802;-58
2023/04/13 09:02:27;;;;;;;;;3.00;3.00;;;;;-147.17;100.00;45700.97;4990742;28;51130;-58
2023/04/13 09:04:54;;;;;;;;;2.00;2.00;;;;;-147.17;100.00;45803.22;4992747;28;50846;-58
2023/04/13 09:07:25;;;;;;;;;8.67;6.67;;;;;-147.17;100.00;45445.34;4991923;28;51256;-60
2023/04/13 09:09:58;;;;;;;;;3.33;2.00;;;;;-147.17;100.00;44694.38;4992272;28;52079;-60
2023/04/13 09:12:28;;;;;;;;;4.33;3.67;;;;;-147.17;100.00;44875.22;4992290;28;51194;-59
2023/04/13 09:14:54;;;;;;;;;4.00;4.00;;;;;-147.17;100.00;45339.19;4992872;28;50952;-59
2023/04/13 09:17:33;;;;;;;;;4.00;4.00;;;;;-147.17;100.00;45166.19;4992453;28;50909;-59
2023/04/13 09:20:17;;;;;;;;;5.67;4.33;;;;;-147.17;100.00;44372.00;4992344;28;51047;-60
2023/04/13 09:22:43;;;;;;;;;4.67;4.00;;;;;-147.17;100.00;45276.28;4992265;28;51037;-59
2023/04/13 09:25:24;;;;;;;;;9.00;8.00;;;;;-147.17;100.00;45390.31;4991961;28;51176;-59
2023/04/13 09:27:53;;;;;;;;;2.33;2.00;;;;;-147.17;100.00;45409.97;4992330;28;50862;-59
2023/04/13 09:30:24;;;;;;;;;8.67;8.00;;;;;-147.17;100.00;45337.22;4991314;28;51070;-59
2023/04/13 09:33:03;;;;;;;;;3.33;3.33;;;;;-147.17;100.00;45026.59;5006932;28;51039;-59
2023/04/13 09:35:30;;;;;;;;;3.00;3.00;;;;;-147.17;100.00;45111.13;4992089;28;51217;-60
2023/04/13 09:37:55;;;;;;;;;0.67;0.00;;;;;-147.17;100.00;45447.31;4990095;28;51379;-60
2023/04/13 09:40:21;;;;;;;;;3.00;3.00;;;;;-147.17;100.00;45162.25;4990406;28;52677;-60
2023/04/13 09:43:01;;;;;;;;;2.33;2.00;;;;;-147.17;100.00;45215.34;4992137;28;50991;-60
2023/04/13 09:45:37;;;;;;;;;2.00;2.00;;;;;-147.17;100.00;45449.28;4992239;28;50969;-59
2023/04/13 09:48:04;;;;;;;;;3.00;3.00;;;;;-147.17;100.00;45054.13;4992147;28;51204;-59
2023/04/13 09:50:32;;;;;;;;;3.00;2.67;;;;;-147.17;100.00;44214.75;4991022;28;51082;-60
2023/04/13 09:53:11;;;;;;;;;2.00;2.00;;;;;-147.17;100.00;43790.25;4992345;28;51097;-60
2023/04/13 09:55:38;;;;;;;;;6.00;4.00;;;;;-147.17;100.00;44002.50;4993424;28;51126;-60
2023/04/13 09:58:10;;;;;;;;;3.00;3.00;;;;;-147.17;100.00;43837.41;4998055;28;51403;-59
2023/04/13 10:00:38;;;;;;;;;3.33;3.00;;;;;-147.17;100.00;43247.84;5011492;28;51310;-59
2023/04/13 10:03:10;;;;;;;;;1.67;1.67;;;;;-147.17;100.00;42904.00;5011476;28;51035;-59
2023/04/13 10:05:37;;;;;;;;;3.00;2.33;;;;;-147.17;100.00;42707.53;5007166;28;51075;-60
2023/04/13 10:08:04;;;;;;;;;2.67;2.00;;;;;-147.17;100.00;41905.97;4990211;28;51337;-60
2023/04/13 10:10:30;;;;;;;;;3.00;2.00;;;;;-147.17;100.00;41452.25;4991494;28;52906;-59
2023/04/13 10:12:58;;;;;;;;;2.67;2.67;;;;;-147.17;100.00;41894.19;4990577;28;51097;-60
2023/04/13 10:15:50;;;;;;;;;4.00;3.67;;;;;-147.17;100.00;44049.66;4991387;28;51105;-60
2023/04/13 10:19:02;;;;;;;;;5.00;3.00;;;;;-147.17;100.00;45409.97;4991719;28;51190;-60
2023/04/13 10:21:38;;;;;;;;;2.67;2.00;;;;;-147.17;100.00;46204.34;4987136;28;53828;-62
2023/04/13 10:24:07;;;;;;;;;6.33;5.67;;;;;-147.17;100.00;46847.44;4991129;28;51185;-59
2023/04/13 10:26:33;;;;;;;;;3.00;2.00;;;;;-147.17;100.00;47254.59;4989903;28;51062;-60
2023/04/13 10:29:00;;;;;;;;;2.00;2.00;;;;;-147.17;100.00;47671.63;4991956;28;51206;-60
2023/04/13 10:31:46;;;;;;;;;6.00;5.00;;;;;-147.17;100.00;47970.66;4989441;28;54341;-60
2023/04/13 10:34:26;;;;;;;;;3.00;3.00;;;;;-147.17;100.00;48165.44;4991111;28;51329;-60
2023/04/13 10:37:05;;;;;;;;;5.00;5.00;;;;;-147.17;100.00;48391.69;4991090;28;51084;-59
2023/04/13 10:39:33;;;;;;;;;3.00;2.00;;;;;-147.17;100.00;48706.53;4991804;28;51142;-60
2023/04/13 10:42:01;;;;;;;;;4.00;3.00;;;;;-147.17;100.00;48895.44;4991574;28;51656;-60
2023/04/13 10:44:39;;;;;;;;;5.00;4.33;;;;;-147.17;100.00;49001.69;4991234;28;51084;-59
2023/04/13 10:47:05;;;;;;;;;3.00;3.00;;;;;-147.17;100.00;49044.97;4991524;28;51129;-60
2023/04/13 10:49:32;;;;;;;;;4.00;3.33;;;;;-147.17;100.00;49123.69;4992581;28;50934;-60
2023/04/13 10:51:57;;;;;;;;;8.33;7.67;;;;;-147.17;100.00;48757.69;4993191;28;51146;-59
2023/04/13 10:54:26;;;;;;;;;2.00;1.33;;;;;-147.17;100.00;47779.81;4995410;28;51077;-60
2023/04/13 10:56:56;;;;;;;;;4.00;1.33;;;;;-147.17;100.00;45976.25;4989836;28;51228;-60
2023/04/13 10:59:21;;;;;;;;;1.67;1.67;;;;;-147.17;100.00;46347.91;4994283;28;50938;-58
2023/04/13 11:01:47;;;;;;;;;3.00;2.00;;;;;-147.17;100.00;47429.66;4993565;28;53306;-59
2023/04/13 11:04:12;;;;;;;;;1.00;1.00;;;;;-147.17;100.00;48116.25;4994181;28;50971;-59
2023/04/13 11:06:38;;;;;;;;;4.33;2.67;;;;;-147.17;100.00;48584.53;4994143;28;51060;-58